createdAt,value
2022-11-25T00:01:13.129Z,204.50
2022-11-25T00:03:47.542Z,204.70
2022-11-25T00:06:22.384Z,219.80
2022-11-25T00:08:55.753Z,223.60
2022-11-25T00:11:37.278Z,218.60
2022-11-25T00:14:13.469Z,225.60
2022-11-25T00:16:49.565Z,230.60
2022-11-25T00:19:25.539Z,228.90
2022-11-25T00:21:58.733Z,232.10
2022-11-25T00:24:35.165Z,215.10
2022-11-25T00:27:07.909Z,215.20
2022-11-25T00:29:41.239Z,213.30
2022-11-25T00:32:14.419Z,213.90
2022-11-25T00:34:48.095Z,231.70
2022-11-25T00:37:22.661Z,245.30
2022-11-25T00:39:55.813Z,243.10
2022-11-25T00:42:45.603Z,252.60
2022-11-25T00:45:20.160Z,235.10
2022-11-25T00:47:51.907Z,227.80
2022-11-25T00:50:24.443Z,240.70
2022-11-25T00:52:58.123Z,246.90
2022-11-25T00:55:52.513Z,230.70
2022-11-25T00:58:25.713Z,248.50
2022-11-25T01:01:03.553Z,247.10
2022-11-25T01:03:37.432Z,246.90
2022-11-25T01:06:11.640Z,269.60
2022-11-25T01:08:43.623Z,269.90
2022-11-25T01:11:18.421Z,257.00
2022-11-25T01:13:57.871Z,256.70
2022-11-25T01:16:36.133Z,292.30
2022-11-25T01:19:10.308Z,284.90
2022-11-25T01:21:44.795Z,278.90
2022-11-25T01:24:19.604Z,271.80
2022-11-25T01:26:52.323Z,277.30
2022-11-25T01:29:26.112Z,267.70
2022-11-25T01:31:59.535Z,254.90
2022-11-25T01:34:33.452Z,262.70
2022-11-25T01:37:10.172Z,270.60
2022-11-25T01:39:44.639Z,273.10
2022-11-25T01:42:17.495Z,264.10
2022-11-25T01:45:25.573Z,279.40
2022-11-25T01:48:06.495Z,262.80
2022-11-25T01:50:39.790Z,261.30
2022-11-25T01:53:16.231Z,266.20
2022-11-25T01:55:53.508Z,258.10
2022-11-25T01:58:29.133Z,261.20
2022-11-25T02:01:07.386Z,256.40
2022-11-25T02:03:41.815Z,252.10
2022-11-25T02:06:19.539Z,260.00
2022-11-25T02:08:54.860Z,259.70
2022-11-25T02:11:32.688Z,259.90
2022-11-25T02:14:05.745Z,265.30
2022-11-25T02:16:39.864Z,258.40
2022-11-25T02:19:24.451Z,254.70
2022-11-25T02:22:03.830Z,258.70
2022-11-25T02:24:40.031Z,250.80
2022-11-25T02:27:13.692Z,255.10
2022-11-25T02:29:47.201Z,254.90
2022-11-25T02:32:24.549Z,252.40
2022-11-25T02:34:56.708Z,255.10
2022-11-25T02:37:32.113Z,258.20
2022-11-25T02:40:06.203Z,245.90
2022-11-25T02:42:42.737Z,247.80
2022-11-25T02:45:16.223Z,249.00
2022-11-25T02:47:49.453Z,254.10
2022-11-25T02:50:22.699Z,245.50
2022-11-25T02:52:58.359Z,243.20
2022-11-25T02:55:31.822Z,242.20
2022-11-25T02:58:05.642Z,237.50
2022-11-25T03:00:38.467Z,232.80
2022-11-25T03:03:12.354Z,236.40
2022-11-25T03:05:44.684Z,231.40
2022-11-25T03:08:20.321Z,229.60
2022-11-25T03:10:53.674Z,239.00
2022-11-25T03:13:26.103Z,236.80
2022-11-25T03:16:00.892Z,231.70
2022-11-25T03:18:37.020Z,229.40
2022-11-25T03:21:09.317Z,222.10
2022-11-25T03:23:41.581Z,223.20
2022-11-25T03:26:14.397Z,220.30
2022-11-25T03:28:47.764Z,210.60
2022-11-25T03:31:21.293Z,209.00
2022-11-25T03:33:57.015Z,222.30
2022-11-25T03:36:30.211Z,214.00
2022-11-25T03:39:03.662Z,218.80
2022-11-25T03:41:37.129Z,221.20
2022-11-25T03:44:09.766Z,217.60
2022-11-25T03:46:43.831Z,216.50
2022-11-25T03:49:17.364Z,211.10
2022-11-25T03:51:50.682Z,217.70
2022-11-25T03:54:23.869Z,212.60
2022-11-25T03:56:56.315Z,212.80
2022-11-25T03:59:30.503Z,204.20
2022-11-25T04:02:05.615Z,200.80
2022-11-25T04:04:39.355Z,194.70
2022-11-25T04:07:14.233Z,195.70
2022-11-25T04:09:47.769Z,196.70
2022-11-25T04:12:39.885Z,197.40
2022-11-25T04:15:14.479Z,192.70
2022-11-25T04:17:47.259Z,186.10
2022-11-25T04:20:19.649Z,185.50
2022-11-25T04:22:52.007Z,189.70
2022-11-25T04:25:26.364Z,206.80
2022-11-25T04:27:58.889Z,191.90
2022-11-25T04:30:32.097Z,198.10
2022-11-25T04:33:06.216Z,201.10
2022-11-25T04:35:40.346Z,205.90
2022-11-25T04:38:13.135Z,216.00
2022-11-25T04:40:49.199Z,214.10
2022-11-25T04:43:21.955Z,208.10
2022-11-25T04:46:13.633Z,194.70
2022-11-25T04:48:51.811Z,187.10
2022-11-25T04:51:25.096Z,193.90
2022-11-25T04:53:57.120Z,199.80
2022-11-25T04:56:30.898Z,199.60
2022-11-25T04:59:22.726Z,202.10
2022-11-25T05:01:54.718Z,207.00
2022-11-25T05:04:29.465Z,207.20
2022-11-25T05:07:02.169Z,216.80
2022-11-25T05:09:34.752Z,210.90
2022-11-25T05:12:08.200Z,219.30
2022-11-25T05:14:42.244Z,226.30
2022-11-25T05:17:18.636Z,217.40
2022-11-25T05:19:53.973Z,216.30
2022-11-25T05:22:29.434Z,218.30
2022-11-25T05:25:03.630Z,222.80
2022-11-25T05:27:38.740Z,215.30
2022-11-25T05:30:14.312Z,218.40
2022-11-25T05:32:50.842Z,219.80
2022-11-25T05:35:23.699Z,221.30
2022-11-25T05:37:56.036Z,232.90
2022-11-25T05:40:30.005Z,226.20
2022-11-25T05:43:05.715Z,228.90
2022-11-25T05:45:37.593Z,230.30
2022-11-25T05:48:11.219Z,229.60
2022-11-25T05:50:44.365Z,237.30
2022-11-25T05:53:18.137Z,230.30
2022-11-25T05:55:59.545Z,239.10
2022-11-25T05:58:34.901Z,241.80
2022-11-25T06:01:10.897Z,244.40
2022-11-25T06:03:43.654Z,239.20
2022-11-25T06:06:17.445Z,247.30
2022-11-25T06:08:50.552Z,249.90
2022-11-25T06:11:26.165Z,250.70
2022-11-25T06:14:00.418Z,254.40
2022-11-25T06:16:35.515Z,249.10
2022-11-25T06:19:09.239Z,268.30
2022-11-25T06:21:41.246Z,255.60
2022-11-25T06:24:15.436Z,258.90
2022-11-25T06:26:49.460Z,269.80
2022-11-25T06:29:22.546Z,266.30
2022-11-25T06:31:57.623Z,264.60
2022-11-25T06:34:31.875Z,262.40
2022-11-25T06:37:06.646Z,270.10
2022-11-25T06:39:39.291Z,254.80
2022-11-25T06:42:12.133Z,266.70
2022-11-25T06:44:45.395Z,258.20
2022-11-25T06:47:19.460Z,237.00
2022-11-25T06:49:53.446Z,244.40
2022-11-25T06:52:26.275Z,239.30
2022-11-25T06:54:58.590Z,246.20
2022-11-25T06:57:31.853Z,249.70
2022-11-25T07:00:07.137Z,240.60
2022-11-25T07:02:46.702Z,257.80
2022-11-25T07:05:21.140Z,245.80
2022-11-25T07:07:54.034Z,245.00
2022-11-25T07:10:28.892Z,228.40
2022-11-25T07:13:04.423Z,216.80
2022-11-25T07:15:40.508Z,225.10
2022-11-25T07:18:14.865Z,236.20
2022-11-25T07:20:49.630Z,229.40
2022-11-25T07:23:22.671Z,246.80
2022-11-25T07:25:58.406Z,239.80
2022-11-25T07:28:31.040Z,240.50
2022-11-25T07:31:29.073Z,235.90
2022-11-25T07:34:05.198Z,229.50
2022-11-25T07:36:38.651Z,233.90
2022-11-25T07:39:16.725Z,239.40
2022-11-25T07:41:50.385Z,226.90
2022-11-25T07:44:22.960Z,232.50
2022-11-25T07:46:55.591Z,254.40
2022-11-25T07:49:29.045Z,241.50
2022-11-25T07:52:05.075Z,250.10
2022-11-25T07:54:38.092Z,269.00
2022-11-25T07:57:10.427Z,254.10
2022-11-25T07:59:43.536Z,277.90
2022-11-25T08:02:15.958Z,292.50
2022-11-25T08:04:48.281Z,283.00
2022-11-25T08:07:21.978Z,236.40
2022-11-25T08:09:55.284Z,250.00
2022-11-25T08:12:28.744Z,244.40
2022-11-25T08:15:02.269Z,231.30
2022-11-25T08:17:37.639Z,218.40
2022-11-25T08:20:12.187Z,216.00
2022-11-25T08:22:44.192Z,228.20
2022-11-25T08:25:17.022Z,219.30
2022-11-25T08:27:49.353Z,211.50
2022-11-25T08:30:26.014Z,215.60
2022-11-25T08:32:58.603Z,200.70
2022-11-25T08:35:30.702Z,213.10
2022-11-25T08:38:05.186Z,225.60
2022-11-25T08:40:37.928Z,214.30
2022-11-25T08:43:10.940Z,213.90
2022-11-25T08:45:44.846Z,200.20
2022-11-25T08:48:18.550Z,158.00
2022-11-25T08:50:53.385Z,156.00
2022-11-25T08:53:26.069Z,162.10
2022-11-25T08:55:58.541Z,140.90
2022-11-25T08:58:30.596Z,147.30
2022-11-25T09:01:10.485Z,144.60
2022-11-25T09:03:45.613Z,132.00
2022-11-25T09:06:20.252Z,128.20
2022-11-25T09:08:52.235Z,127.30
2022-11-25T09:11:25.113Z,134.40
2022-11-25T09:13:57.731Z,124.60
2022-11-25T09:16:29.880Z,121.60
2022-11-25T09:19:07.196Z,114.60
2022-11-25T09:21:39.895Z,112.80
2022-11-25T09:24:12.634Z,109.20
2022-11-25T09:26:45.898Z,104.10
2022-11-25T09:29:22.391Z,102.60
2022-11-25T09:31:58.359Z,101.60
2022-11-25T09:34:34.317Z,103.60
2022-11-25T09:37:11.986Z,97.70
2022-11-25T09:39:48.196Z,98.80
2022-11-25T09:42:51.732Z,98.80
2022-11-25T09:45:47.210Z,106.90
2022-11-25T09:48:36.445Z,97.00
2022-11-25T09:51:15.432Z,93.80
2022-11-25T09:53:51.652Z,94.00
2022-11-25T09:56:31.007Z,86.30
2022-11-25T09:59:06.687Z,93.50
2022-11-25T10:01:49.049Z,85.40
2022-11-25T10:04:28.157Z,80.30
2022-11-25T10:07:03.075Z,83.00
2022-11-25T10:09:38.671Z,78.90
2022-11-25T10:12:23.464Z,77.20
2022-11-25T10:14:59.731Z,76.10
2022-11-25T10:17:37.102Z,74.20
2022-11-25T10:20:21.483Z,77.90
2022-11-25T10:22:56.520Z,72.60
2022-11-25T10:25:31.685Z,72.70
2022-11-25T10:28:05.692Z,70.10
2022-11-25T10:30:45.194Z,66.50
2022-11-25T10:33:23.074Z,68.00
2022-11-25T10:35:57.701Z,64.70
2022-11-25T10:38:36.471Z,66.60
2022-11-25T10:41:08.901Z,71.20
2022-11-25T10:43:44.653Z,67.80
2022-11-25T10:46:22.600Z,66.80
2022-11-25T10:49:07.329Z,65.00
2022-11-25T10:51:44.335Z,71.00
2022-11-25T10:54:26.894Z,70.00
2022-11-25T10:57:04.317Z,64.20
2022-11-25T10:59:38.788Z,61.30
2022-11-25T11:02:21.561Z,56.60
2022-11-25T11:04:57.482Z,54.90
2022-11-25T11:07:30.624Z,56.60
2022-11-25T11:10:18.406Z,49.40
2022-11-25T11:13:02.269Z,49.80
2022-11-25T11:15:47.389Z,47.10
2022-11-25T11:18:29.559Z,47.40
2022-11-25T11:21:03.442Z,52.60
2022-11-25T11:23:52.749Z,51.50
2022-11-25T11:26:29.895Z,57.80
2022-11-25T11:29:08.492Z,59.80
2022-11-25T11:31:49.754Z,54.20
2022-11-25T11:35:00.272Z,53.00
2022-11-25T11:37:44.749Z,53.20
2022-11-25T11:40:26.479Z,52.10
2022-11-25T11:43:26.352Z,56.00
2022-11-25T11:46:11.642Z,58.90
2022-11-25T11:48:53.416Z,59.90
2022-11-25T11:51:34.864Z,57.50
2022-11-25T11:54:09.728Z,59.50
2022-11-25T11:56:43.990Z,55.60
2022-11-25T11:59:50.815Z,57.30
2022-11-25T12:02:42.027Z,54.20
2022-11-25T12:05:23.527Z,59.50
2022-11-25T12:08:05.116Z,60.10
2022-11-25T12:10:41.329Z,62.00
2022-11-25T12:13:20.068Z,53.60
2022-11-25T12:15:57.558Z,56.00
2022-11-25T12:18:46.611Z,64.80
2022-11-25T12:21:29.731Z,63.90
2022-11-25T12:24:07.970Z,57.30
2022-11-25T12:26:47.100Z,61.40
2022-11-25T12:29:24.282Z,55.90
2022-11-25T12:32:00.260Z,52.20
2022-11-25T12:34:37.630Z,51.00
2022-11-25T12:37:15.228Z,54.50
2022-11-25T12:39:49.815Z,51.60
2022-11-25T12:42:28.611Z,48.60
2022-11-25T12:45:06.603Z,51.60
2022-11-25T12:47:40.345Z,50.60
2022-11-25T12:50:17.470Z,54.90
2022-11-25T12:52:59.511Z,63.10
2022-11-25T12:55:35.377Z,67.00
2022-11-25T12:58:33.114Z,66.60
2022-11-25T13:01:48.662Z,71.70
2022-11-25T13:04:31.241Z,82.20
2022-11-25T13:07:30.675Z,107.70
2022-11-25T13:10:44.299Z,95.20
2022-11-25T13:13:24.905Z,85.00
2022-11-25T13:15:59.059Z,78.30
2022-11-25T13:18:34.043Z,68.20
2022-11-25T13:21:13.877Z,73.00
2022-11-25T13:23:51.947Z,76.40
2022-11-25T13:26:50.208Z,73.80
2022-11-25T13:30:03.920Z,72.60
2022-11-25T13:32:39.007Z,74.50
2022-11-25T13:35:50.851Z,81.10
2022-11-25T13:38:56.118Z,70.80
2022-11-25T13:41:45.451Z,78.70
2022-11-25T13:44:30.896Z,70.80
2022-11-25T13:47:37.241Z,74.30
2022-11-25T13:50:41.973Z,78.20
2022-11-25T13:53:30.301Z,67.70
2022-11-25T13:56:18.162Z,74.50
2022-11-25T13:59:23.016Z,81.60
2022-11-25T14:02:46.695Z,77.00
2022-11-25T14:05:51.292Z,87.10
2022-11-25T14:08:31.218Z,73.80
2022-11-25T14:11:24.357Z,69.10
2022-11-25T14:14:08.414Z,69.10
2022-11-25T14:16:51.894Z,75.50
2022-11-25T14:19:52.073Z,141.00
2022-11-25T14:22:40.750Z,73.40
2022-11-25T14:25:22.725Z,72.70
2022-11-25T14:28:20.376Z,68.40
2022-11-25T14:30:56.023Z,92.30
2022-11-25T14:33:32.570Z,72.10
2022-11-25T14:36:09.404Z,76.60
2022-11-25T14:38:46.802Z,77.20
2022-11-25T14:41:21.072Z,80.20
2022-11-25T14:43:57.281Z,103.50
2022-11-25T14:46:31.454Z,106.50
2022-11-25T14:49:07.778Z,95.60
2022-11-25T14:51:50.960Z,92.00
2022-11-25T14:54:24.100Z,111.10
2022-11-25T14:56:56.041Z,87.90
2022-11-25T14:59:35.001Z,90.70
2022-11-25T15:02:09.298Z,106.00
2022-11-25T15:04:45.376Z,104.60
2022-11-25T15:07:30.957Z,104.30
2022-11-25T15:10:08.518Z,103.10
2022-11-25T15:12:46.322Z,111.60
2022-11-25T15:15:21.155Z,106.00
2022-11-25T15:17:57.557Z,122.60
2022-11-25T15:20:34.614Z,162.40
2022-11-25T15:23:07.429Z,161.60
2022-11-25T15:25:52.496Z,143.10
2022-11-25T15:28:26.496Z,138.70
2022-11-25T15:31:01.888Z,130.80
2022-11-25T15:33:35.713Z,275.80
2022-11-25T15:36:08.990Z,319.30
2022-11-25T15:38:45.728Z,210.00
2022-11-25T15:41:26.380Z,235.20
2022-11-25T15:43:59.720Z,256.60
2022-11-25T15:46:34.543Z,310.00
2022-11-25T15:49:18.055Z,303.20
2022-11-25T15:51:56.964Z,206.20
2022-11-25T15:54:32.723Z,220.40
2022-11-25T15:57:21.056Z,215.00
2022-11-25T16:00:11.741Z,265.70
2022-11-25T16:02:53.083Z,227.80
2022-11-25T16:05:52.658Z,183.70
2022-11-25T16:08:42.109Z,182.10
2022-11-25T16:11:19.324Z,171.60
2022-11-25T16:13:52.576Z,182.20
2022-11-25T16:16:28.981Z,121.70
2022-11-25T16:19:23.199Z,147.60
2022-11-25T16:22:04.436Z,150.90
2022-11-25T16:24:50.579Z,152.40
2022-11-25T16:27:25.298Z,131.20
2022-11-25T16:29:59.144Z,128.30
2022-11-25T16:32:34.680Z,134.70
2022-11-25T16:35:17.383Z,124.70
2022-11-25T16:37:50.181Z,139.70
2022-11-25T16:40:24.264Z,146.10
2022-11-25T16:42:57.226Z,131.60
2022-11-25T16:45:32.813Z,122.20
2022-11-25T16:48:18.366Z,127.90
2022-11-25T16:50:52.584Z,124.00
2022-11-25T16:53:25.318Z,132.20
2022-11-25T16:55:59.099Z,129.50
2022-11-25T16:58:33.563Z,123.90
2022-11-25T17:01:11.678Z,128.60
2022-11-25T17:03:44.098Z,133.50
2022-11-25T17:06:22.525Z,144.70
2022-11-25T17:08:55.479Z,139.30
2022-11-25T17:11:33.980Z,144.20
2022-11-25T17:14:12.936Z,158.90
2022-11-25T17:16:46.673Z,154.20
2022-11-25T17:19:19.930Z,154.20
2022-11-25T17:21:53.472Z,156.50
2022-11-25T17:24:27.983Z,159.30
2022-11-25T17:27:04.070Z,160.50
2022-11-25T17:29:40.309Z,168.90
2022-11-25T17:32:16.403Z,187.00
2022-11-25T17:34:48.932Z,196.40
2022-11-25T17:37:25.272Z,344.70
2022-11-25T17:39:58.896Z,412.80
2022-11-25T17:42:33.769Z,331.00
2022-11-25T17:45:14.599Z,316.00
2022-11-25T17:47:51.253Z,317.90
2022-11-25T17:50:27.132Z,346.00
2022-11-25T17:53:02.632Z,348.40
2022-11-25T17:55:36.294Z,356.90
2022-11-25T17:58:10.650Z,366.60
2022-11-25T18:00:44.983Z,373.20
2022-11-25T18:03:18.736Z,350.90
2022-11-25T18:05:51.712Z,409.50
2022-11-25T18:08:25.757Z,393.80
2022-11-25T18:11:02.595Z,387.90
2022-11-25T18:13:39.912Z,366.80
2022-11-25T18:16:13.103Z,326.90
2022-11-25T18:18:46.394Z,311.50
2022-11-25T18:21:20.171Z,302.20
2022-11-25T18:23:54.065Z,291.30
2022-11-25T18:26:26.461Z,273.00
2022-11-25T18:28:59.643Z,253.50
2022-11-25T18:31:34.326Z,238.90
2022-11-25T18:34:16.366Z,223.60
2022-11-25T18:36:51.250Z,190.60
2022-11-25T18:39:23.720Z,194.60
2022-11-25T18:41:59.954Z,169.00
2022-11-25T18:44:37.815Z,173.80
2022-11-25T18:47:13.179Z,143.80
2022-11-25T18:49:53.898Z,151.90
2022-11-25T18:52:30.168Z,170.80
2022-11-25T18:55:06.478Z,147.00
2022-11-25T18:57:41.494Z,137.90
2022-11-25T19:00:33.822Z,141.30
2022-11-25T19:03:10.647Z,141.20
2022-11-25T19:05:43.284Z,137.30
2022-11-25T19:08:18.649Z,146.30
2022-11-25T19:10:52.096Z,133.20
2022-11-25T19:13:30.001Z,126.40
2022-11-25T19:16:06.210Z,134.70
2022-11-25T19:18:38.439Z,136.70
2022-11-25T19:21:17.457Z,139.40
2022-11-25T19:23:50.508Z,143.60
2022-11-25T19:26:27.697Z,138.00
2022-11-25T19:29:04.694Z,136.50
2022-11-25T19:31:38.051Z,135.00
2022-11-25T19:34:11.336Z,139.80
2022-11-25T19:36:43.888Z,139.10
2022-11-25T19:39:18.927Z,122.40
2022-11-25T19:41:50.786Z,131.00
2022-11-25T19:44:23.621Z,128.80
2022-11-25T19:47:14.909Z,127.90
2022-11-25T19:49:48.040Z,106.30
2022-11-25T19:52:23.150Z,134.30
2022-11-25T19:54:55.659Z,116.60
2022-11-25T19:57:30.357Z,114.40
2022-11-25T20:00:02.687Z,121.20
2022-11-25T20:02:35.263Z,103.60
2022-11-25T20:05:11.226Z,99.50
2022-11-25T20:07:44.892Z,95.60
2022-11-25T20:10:23.099Z,97.40
2022-11-25T20:12:56.435Z,108.70
2022-11-25T20:15:38.178Z,101.80
2022-11-25T20:18:18.200Z,115.40
2022-11-25T20:20:56.817Z,114.80
2022-11-25T20:23:31.032Z,109.70
2022-11-25T20:26:05.533Z,104.60
2022-11-25T20:28:41.035Z,95.20
2022-11-25T20:31:16.263Z,94.10
2022-11-25T20:33:49.864Z,102.20
2022-11-25T20:36:29.114Z,105.30
2022-11-25T20:39:03.316Z,105.90
2022-11-25T20:41:37.761Z,106.50
2022-11-25T20:44:12.507Z,106.30
2022-11-25T20:46:45.793Z,109.20
2022-11-25T20:49:25.834Z,100.10
2022-11-25T20:51:58.746Z,98.10
2022-11-25T20:54:36.543Z,102.70
2022-11-25T20:57:13.136Z,95.50
2022-11-25T20:59:46.112Z,95.80
2022-11-25T21:02:24.647Z,103.70
2022-11-25T21:04:57.981Z,115.50
2022-11-25T21:07:30.063Z,119.10
2022-11-25T21:10:04.954Z,122.80
2022-11-25T21:12:38.808Z,117.60
2022-11-25T21:15:21.249Z,96.60
2022-11-25T21:17:54.144Z,89.90
2022-11-25T21:20:28.498Z,91.80
2022-11-25T21:23:05.754Z,95.20
2022-11-25T21:25:39.092Z,163.10
2022-11-25T21:28:13.060Z,144.20
2022-11-25T21:30:46.913Z,106.80
2022-11-25T21:33:21.777Z,101.00
2022-11-25T21:35:57.826Z,101.10
2022-11-25T21:38:34.738Z,97.70
2022-11-25T21:41:08.312Z,102.60
2022-11-25T21:43:45.719Z,104.90
2022-11-25T21:46:25.464Z,112.50
2022-11-25T21:48:58.808Z,111.50
2022-11-25T21:51:33.244Z,114.90
2022-11-25T21:54:06.435Z,133.10
2022-11-25T21:56:39.051Z,135.70
2022-11-25T21:59:18.445Z,122.90
2022-11-25T22:01:51.170Z,115.10
2022-11-25T22:04:25.753Z,116.40
2022-11-25T22:07:01.922Z,122.00
2022-11-25T22:09:35.162Z,125.90
2022-11-25T22:12:11.556Z,133.00
2022-11-25T22:14:43.871Z,138.80
2022-11-25T22:17:20.553Z,140.30
2022-11-25T22:19:55.931Z,142.90
2022-11-25T22:22:32.209Z,147.00
2022-11-25T22:25:06.598Z,152.90
2022-11-25T22:27:40.664Z,173.40
2022-11-25T22:30:20.164Z,172.60
2022-11-25T22:32:59.890Z,159.00
2022-11-25T22:35:32.982Z,161.10
2022-11-25T22:38:12.146Z,167.30
2022-11-25T22:40:47.996Z,186.70
2022-11-25T22:43:22.372Z,194.50
2022-11-25T22:45:57.206Z,170.20
2022-11-25T22:48:35.478Z,176.00
2022-11-25T22:51:11.325Z,177.70
2022-11-25T22:53:43.982Z,160.90
2022-11-25T22:56:20.328Z,169.90
2022-11-25T22:58:58.934Z,164.70
2022-11-25T23:01:33.145Z,156.00
2022-11-25T23:04:08.937Z,154.60
2022-11-25T23:06:41.568Z,155.00
2022-11-25T23:09:17.961Z,151.10
2022-11-25T23:11:51.404Z,153.60
2022-11-25T23:14:27.726Z,152.70
2022-11-25T23:17:03.373Z,155.20
2022-11-25T23:19:35.980Z,153.00
2022-11-25T23:22:14.072Z,151.40
2022-11-25T23:24:48.412Z,153.00
2022-11-25T23:27:21.718Z,159.60
2022-11-25T23:29:59.376Z,164.10
2022-11-25T23:32:34.691Z,169.60
2022-11-25T23:35:15.843Z,163.50
2022-11-25T23:37:54.349Z,168.70
2022-11-25T23:40:28.314Z,176.70
2022-11-25T23:43:03.232Z,190.70
2022-11-25T23:45:36.295Z,179.40
2022-11-25T23:48:12.664Z,188.00
2022-11-25T23:50:46.170Z,201.50
2022-11-25T23:53:25.529Z,215.80
2022-11-25T23:55:57.900Z,211.90
2022-11-25T23:58:31.118Z,224.50
